Time;durP1;ratioP1;P1;durP2;ratioP2;P2;SDS_P1;SDS_P2;PMS_P1;PMS_P2;Temp;Humidity;BMP_temperature;BMP_pressure;BME280_temperature;BME280_humidity;BME280_pressure;Samples;Min_cycle;Max_cycle;Signal;HPM_P1;HPM_P2
2023/05/15 00:00:48;;;;;;;14.02;7.93;;;;;;;13.26;100.00;100660.19;4993341;28;20094;-71
2023/05/15 00:03:13;;;;;;;11.55;8.38;;;;;;;13.42;100.00;100692.63;4993738;28;20100;-71
2023/05/15 00:05:39;;;;;;;13.52;8.25;;;;;;;13.35;100.00;100688.09;4993256;28;20465;-71
2023/05/15 00:08:05;;;;;;;12.00;8.45;;;;;;;13.35;100.00;100691.56;4993571;28;20022;-75
2023/05/15 00:10:30;;;;;;;13.98;8.77;;;;;;;13.29;100.00;100681.00;4993472;28;20457;-71
2023/05/15 00:12:55;;;;;;;11.27;8.18;;;;;;;13.21;100.00;100688.56;4993482;28;20034;-71
2023/05/15 00:18:43;;;;;;;10.45;7.72;;;;;;;12.65;100.00;100603.09;5072795;23;20066;-71
2023/05/15 00:21:08;;;;;;;13.65;8.98;;;;;;;13.05;100.00;100687.22;4973039;28;20027;-72
2023/05/15 00:23:34;;;;;;;12.00;8.25;;;;;;;12.93;100.00;100674.78;4973598;28;20034;-70
2023/05/15 00:25:59;;;;;;;14.98;9.20;;;;;;;12.99;100.00;100671.47;4973560;28;20106;-71
2023/05/15 00:28:25;;;;;;;15.02;9.20;;;;;;;13.03;100.00;100662.09;4973282;28;20031;-71
2023/05/15 00:30:51;;;;;;;10.80;8.50;;;;;;;13.04;100.00;100661.25;4973416;28;20086;-74
2023/05/15 00:33:16;;;;;;;13.88;8.93;;;;;;;13.04;100.00;100669.03;4973284;28;20039;-71
2023/05/15 00:35:42;;;;;;;11.32;8.48;;;;;;;13.02;100.00;100660.31;4972914;28;20123;-72
2023/05/15 00:38:07;;;;;;;14.70;8.77;;;;;;;13.00;100.00;100668.06;4972130;28;20027;-70
2023/05/15 00:40:35;;;;;;;11.68;8.95;;;;;;;13.05;100.00;100666.47;4973386;28;20089;-74
2023/05/15 00:43:01;;;;;;;12.63;8.95;;;;;;;13.01;100.00;100664.63;4973278;28;20038;-71
2023/05/15 00:45:28;;;;;;;13.02;9.95;;;;;;;12.98;100.00;100636.03;4972884;28;20081;-71
2023/05/15 00:47:56;;;;;;;12.40;8.52;;;;;;;13.09;100.00;100644.13;4973117;28;20043;-71
2023/05/15 00:50:23;;;;;;;12.35;8.70;;;;;;;12.60;100.00;100565.81;4972906;28;20031;-71
2023/05/15 00:52:49;;;;;;;14.05;8.82;;;;;;;13.10;100.00;100651.06;4972825;28;20430;-72
2023/05/15 00:55:14;;;;;;;15.95;9.65;;;;;;;13.12;100.00;100654.56;4972857;28;20058;-71
2023/05/15 00:57:42;;;;;;;11.32;8.32;;;;;;;12.65;100.00;100560.75;4972925;28;20034;-71
2023/05/15 01:00:09;;;;;;;13.32;9.35;;;;;;;13.03;100.00;100626.66;4971665;28;20453;-70
2023/05/15 01:02:37;;;;;;;14.20;9.38;;;;;;;13.17;100.00;100644.34;4972607;28;20054;-71
2023/05/15 01:05:03;;;;;;;14.07;8.52;;;;;;;13.20;100.00;100645.31;4972909;28;20038;-70
2023/05/15 01:07:32;;;;;;;15.05;9.00;;;;;;;13.22;100.00;100650.53;4972754;28;20047;-70
2023/05/15 01:09:59;;;;;;;11.57;8.30;;;;;;;13.20;100.00;100642.72;4972891;28;20130;-71
2023/05/15 01:12:26;;;;;;;13.48;8.70;;;;;;;13.17;100.00;100647.84;4972495;28;20390;-73
2023/05/15 01:14:52;;;;;;;18.90;9.02;;;;;;;13.06;100.00;100638.84;4971591;28;20057;-70
2023/05/15 01:17:17;;;;;;;11.35;9.13;;;;;;;12.57;100.00;100564.03;4972105;28;20477;-72
2023/05/15 01:19:45;;;;;;;11.32;8.73;;;;;;;12.61;100.00;100560.69;4972635;28;20424;-72
2023/05/15 01:22:43;;;;;;;14.57;9.20;;;;;;;13.09;100.00;100645.00;4972247;28;20174;-71
2023/05/15 01:25:33;;;;;;;10.73;9.02;;;;;;;12.85;100.00;100620.97;4969177;28;20039;-70
2023/05/15 01:28:05;;;;;;;15.43;9.35;;;;;;;12.41;100.00;100575.63;4969528;28;20453;-71
2023/05/15 01:30:37;;;;;;;15.10;10.23;;;;;;;12.70;100.00;100635.19;4969601;28;20474;-71
2023/05/15 01:33:16;;;;;;;11.32;8.88;;;;;;;12.62;100.00;100623.72;4954272;28;20438;-75
2023/05/15 01:36:09;;;;;;;12.70;9.70;;;;;;;12.13;100.00;100540.22;4949942;28;20146;-71
2023/05/15 01:38:43;;;;;;;20.05;9.57;;;;;;;12.66;100.00;100627.28;4950221;28;20031;-71
2023/05/15 01:41:28;;;;;;;15.23;9.77;;;;;;;12.63;100.00;100620.28;4949966;28;20039;-72
2023/05/15 01:44:05;;;;;;;13.77;9.25;;;;;;;12.61;100.00;100611.59;4949660;28;20046;-70
2023/05/15 01:46:37;;;;;;;13.85;9.15;;;;;;;12.66;100.00;100603.97;4949984;28;20094;-75
2023/05/15 01:49:02;;;;;;;15.00;9.30;;;;;;;12.70;100.00;100601.53;4950133;28;20070;-72
2023/05/15 01:51:30;;;;;;;14.10;9.30;;;;;;;12.24;100.00;100505.19;4950131;28;20085;-75
2023/05/15 01:53:58;;;;;;;14.77;8.80;;;;;;;12.77;100.00;100580.16;4949895;28;20027;-70
2023/05/15 01:56:25;;;;;;;13.20;8.25;;;;;;;12.42;100.00;100520.41;4949821;28;20098;-76
2023/05/15 01:58:51;;;;;;;12.70;8.85;;;;;;;12.61;100.00;100562.38;4949680;28;20032;-72
2023/05/15 02:01:18;;;;;;;14.25;8.55;;;;;;;12.67;100.00;100562.56;4954094;28;20051;-71
2023/05/15 02:03:44;;;;;;;13.85;8.85;;;;;;;12.48;100.00;100535.25;4971460;28;20579;-71
2023/05/15 02:06:11;;;;;;;12.85;8.13;;;;;;;12.75;100.00;100562.81;4971443;28;20027;-71
2023/05/15 02:08:38;;;;;;;13.23;8.90;;;;;;;12.70;100.00;100548.84;4971660;28;20488;-71
2023/05/15 02:11:04;;;;;;;16.67;9.55;;;;;;;12.85;100.00;100571.75;4971473;28;20031;-72
2023/05/15 02:13:31;;;;;;;14.27;8.57;;;;;;;12.87;100.00;100565.75;4971136;28;20042;-71
2023/05/15 02:15:56;;;;;;;13.55;8.60;;;;;;;12.90;100.00;100568.44;4970199;28;20093;-73
2023/05/15 02:18:22;;;;;;;11.48;8.38;;;;;;;12.98;100.00;100578.16;4971266;28;20058;-70
2023/05/15 02:20:48;;;;;;;13.98;9.23;;;;;;;12.82;100.00;100584.59;4971312;28;20509;-70
2023/05/15 02:23:13;;;;;;;15.35;9.52;;;;;;;12.72;100.00;100578.25;4971397;28;20039;-71
2023/05/15 02:26:06;;;;;;;10.38;8.25;;;;;;;12.72;100.00;100583.44;4971333;28;20031;-75
2023/05/15 02:28:49;;;;;;;14.13;8.88;;;;;;;12.59;100.00;100548.53;4971382;28;20401;-71
2023/05/15 02:31:34;;;;;;;11.77;8.77;;;;;;;12.78;100.00;100558.59;4971270;28;20033;-71
2023/05/15 02:34:13;;;;;;;13.20;8.15;;;;;;;12.68;100.00;100555.69;4969873;28;20117;-71
2023/05/15 02:36:40;;;;;;;;;;;;;;;12.44;100.00;100567.94;4971529;28;20034;-71
2023/05/15 02:39:07;;;;;;;13.45;9.90;;;;;;;12.40;100.00;100563.50;4971094;28;20372;-71
2023/05/15 02:41:35;;;;;;;14.98;9.60;;;;;;;12.31;100.00;100565.78;4971225;28;20026;-70
2023/05/15 02:44:02;;;;;;;12.77;9.48;;;;;;;12.36;100.00;100569.41;4971188;28;20029;-71
2023/05/15 02:46:28;;;;;;;14.07;10.13;;;;;;;11.83;100.00;100484.03;4971324;28;20417;-70
2023/05/15 02:48:54;;;;;;;10.65;8.93;;;;;;;11.94;100.00;100503.38;4970551;28;20027;-69
2023/05/15 02:51:20;;;;;;;15.38;9.57;;;;;;;12.41;100.00;100577.31;4970722;28;20050;-71
2023/05/15 02:53:45;;;;;;;15.40;10.10;;;;;;;12.32;100.00;100553.72;4973885;28;20046;-71
2023/05/15 02:56:11;;;;;;;14.57;10.38;;;;;;;12.43;100.00;100571.34;4974910;28;20023;-74
2023/05/15 02:58:37;;;;;;;15.07;10.00;;;;;;;12.13;100.00;100503.97;4974524;28;20063;-75
2023/05/15 03:01:03;;;;;;;14.60;10.55;;;;;;;12.49;100.00;100557.72;4974498;28;20034;-70
2023/05/15 03:03:28;;;;;;;14.68;9.88;;;;;;;12.51;100.00;100550.00;4974542;28;20031;-71
2023/05/15 03:05:54;;;;;;;11.18;9.85;;;;;;;12.59;100.00;100551.97;4974566;28;20092;-71
2023/05/15 03:08:20;;;;;;;16.95;9.82;;;;;;;12.55;100.00;100551.88;4974404;28;20405;-75
2023/05/15 03:10:45;;;;;;;15.68;9.77;;;;;;;12.52;100.00;100544.84;4974424;28;20035;-71
2023/05/15 03:13:11;;;;;;;14.88;9.80;;;;;;;12.53;100.00;100549.19;4974299;28;20026;-71
2023/05/15 03:15:36;;;;;;;17.23;10.00;;;;;;;12.04;100.00;100472.66;4974125;28;20042;-72
2023/05/15 03:18:02;;;;;;;13.40;9.43;;;;;;;12.42;100.00;100554.06;4974477;28;20051;-73
2023/05/15 03:20:27;;;;;;;15.18;10.13;;;;;;;12.30;100.00;100562.31;4974544;28;20029;-72
2023/05/15 03:22:53;;;;;;;14.00;9.15;;;;;;;12.37;100.00;100568.56;4974492;28;20038;-70
2023/05/15 03:25:19;;;;;;;14.30;8.82;;;;;;;11.86;100.00;100493.59;4974276;28;20489;-74
2023/05/15 03:27:45;;;;;;;12.57;9.13;;;;;;;11.93;100.00;100508.50;4974170;28;20106;-71
2023/05/15 03:30:10;;;;;;;15.00;10.25;;;;;;;12.31;100.00;100573.53;4966892;28;20569;-71
2023/05/15 03:32:36;;;;;;;13.82;9.35;;;;;;;12.30;100.00;100564.91;4973376;28;20101;-72
2023/05/15 03:35:01;;;;;;;11.32;8.55;;;;;;;12.16;100.00;100545.47;4973866;28;20114;-71
2023/05/15 03:37:27;;;;;;;15.30;9.02;;;;;;;12.24;100.00;100585.44;4973096;28;20034;-71
2023/05/15 03:39:52;;;;;;;17.15;9.75;;;;;;;12.10;100.00;100587.56;4974010;28;20031;-71
2023/05/15 03:42:22;;;;;;;11.20;9.10;;;;;;;12.09;100.00;100591.00;4973249;28;20423;-70
2023/05/15 03:44:48;;;;;;;14.40;9.63;;;;;;;12.05;100.00;100583.06;4973382;28;20149;-71
2023/05/15 03:47:14;;;;;;;11.95;9.55;;;;;;;12.09;100.00;100572.00;4973647;28;20549;-71
2023/05/15 03:49:40;;;;;;;17.73;9.70;;;;;;;12.14;100.00;100581.66;4973779;28;20038;-71
2023/05/15 03:52:05;;;;;;;12.40;9.35;;;;;;;12.18;100.00;100579.19;4972933;28;20039;-72
2023/05/15 03:54:31;;;;;;;11.77;9.18;;;;;;;12.23;100.00;100572.44;4972986;28;20066;-71
2023/05/15 03:56:56;;;;;;;14.10;9.57;;;;;;;12.23;100.00;100569.84;4973545;28;20065;-71
2023/05/15 03:59:22;;;;;;;13.20;9.80;;;;;;;12.26;100.00;100572.53;4973252;28;20525;-72
2023/05/15 04:01:47;;;;;;;13.00;9.43;;;;;;;12.30;100.00;100579.59;4973487;28;20059;-71
2023/05/15 04:04:13;;;;;;;16.45;9.20;;;;;;;12.33;100.00;100581.38;4966522;28;20549;-71
2023/05/15 04:06:38;;;;;;;15.23;10.25;;;;;;;12.32;100.00;100577.03;4968267;28;20047;-72
2023/05/15 04:09:03;;;;;;;14.27;10.70;;;;;;;12.32;100.00;100577.03;4972320;28;20023;-72
2023/05/15 04:11:29;;;;;;;14.70;10.00;;;;;;;12.30;100.00;100585.63;4973096;28;20119;-71
2023/05/15 04:13:54;;;;;;;13.10;9.60;;;;;;;12.33;100.00;100571.03;4973271;28;20035;-70
2023/05/15 04:16:20;;;;;;;12.80;9.48;;;;;;;12.38;100.00;100567.75;4971381;28;20031;-72
2023/05/15 04:18:45;;;;;;;16.98;9.75;;;;;;;12.04;100.00;100499.41;4972127;28;20059;-72
2023/05/15 04:21:11;;;;;;;13.32;10.05;;;;;;;12.39;100.00;100551.38;4972858;28;20134;-72
2023/05/15 04:23:36;;;;;;;16.80;10.00;;;;;;;12.40;100.00;100566.09;4972608;28;20030;-71
2023/05/15 04:26:01;;;;;;;11.77;8.90;;;;;;;12.31;100.00;100537.31;4971264;28;20037;-71
2023/05/15 04:28:27;;;;;;;12.80;9.60;;;;;;;12.45;100.00;100564.50;4973213;28;20039;-71
2023/05/15 04:30:52;;;;;;;15.02;9.55;;;;;;;12.38;100.00;100567.75;4967383;28;20110;-73
2023/05/15 04:33:18;;;;;;;13.75;9.60;;;;;;;12.34;100.00;100581.44;4972714;28;20066;-71
2023/05/15 04:35:43;;;;;;;17.60;8.90;;;;;;;12.34;100.00;100571.06;4967726;28;20027;-71
2023/05/15 04:38:09;;;;;;;13.05;9.27;;;;;;;12.42;100.00;100563.53;4972741;28;20057;-74
2023/05/15 04:40:34;;;;;;;13.68;8.70;;;;;;;12.17;100.00;100500.66;4969363;28;20030;-72
2023/05/15 04:42:59;;;;;;;12.52;9.35;;;;;;;12.54;100.00;100560.47;4970222;28;20041;-71
2023/05/15 04:45:25;;;;;;;12.98;9.55;;;;;;;12.34;100.00;100526.19;4972671;28;20026;-73
2023/05/15 04:47:51;;;;;;;13.32;9.90;;;;;;;12.60;100.00;100558.91;4986868;28;20047;-70
2023/05/15 04:50:16;;;;;;;14.02;10.57;;;;;;;12.70;100.00;100554.91;4972899;28;20022;-71
2023/05/15 04:52:44;;;;;;;14.60;9.90;;;;;;;12.79;100.00;100554.28;4963444;28;20030;-70
2023/05/15 04:55:10;;;;;;;12.52;9.35;;;;;;;12.87;100.00;100541.53;4953610;28;20055;-71
2023/05/15 04:57:35;;;;;;;12.63;9.13;;;;;;;13.01;100.00;100544.53;4953355;28;20027;-71
2023/05/15 05:00:01;;;;;;;14.05;8.82;;;;;;;13.08;100.00;100549.06;4953618;28;20592;-72
2023/05/15 05:02:26;;;;;;;13.70;9.82;;;;;;;13.18;100.00;100566.59;4953507;28;20035;-72
2023/05/15 05:04:52;;;;;;;13.80;9.00;;;;;;;13.25;100.00;100572.88;4953616;28;20031;-70
2023/05/15 05:07:18;;;;;;;12.45;9.30;;;;;;;13.26;100.00;100579.81;4953493;28;20042;-71
2023/05/15 05:09:43;;;;;;;13.48;9.57;;;;;;;13.35;100.00;100580.06;4953412;28;20441;-73
2023/05/15 05:12:09;;;;;;;14.23;9.27;;;;;;;13.30;100.00;100566.09;4953458;28;20034;-76
2023/05/15 05:14:34;;;;;;;15.00;8.57;;;;;;;13.26;100.00;100557.34;4952798;28;20027;-75
2023/05/15 05:17:00;;;;;;;15.00;9.38;;;;;;;13.43;100.00;100575.09;4952954;28;20047;-76
2023/05/15 05:19:27;;;;;;;13.60;8.85;;;;;;;13.34;100.00;100554.09;4953067;29;20078;-77
2023/05/15 05:21:52;;;;;;;15.43;9.68;;;;;;;13.07;100.00;100493.75;4966369;28;20034;-75
2023/05/15 05:24:18;;;;;;;11.75;9.43;;;;;;;13.59;100.00;100574.69;4972508;28;20031;-74
2023/05/15 05:26:44;;;;;;;13.25;9.73;;;;;;;13.07;100.00;100478.22;4972409;28;20432;-72
2023/05/15 05:29:09;;;;;;;13.48;9.15;;;;;;;13.58;100.00;100574.63;4972270;28;20477;-72
2023/05/15 05:31:35;;;;;;;17.02;9.32;;;;;;;13.25;100.00;100580.63;4972180;28;20043;-72
2023/05/15 05:34:00;;;;;;;16.23;9.50;;;;;;;12.79;100.00;100521.47;4972248;28;20067;-73
2023/05/15 05:36:26;;;;;;;15.73;9.80;;;;;;;13.27;100.00;100586.72;4972317;28;20131;-72
2023/05/15 05:38:51;;;;;;;15.05;10.65;;;;;;;13.16;100.00;100572.59;4971952;28;20378;-70
2023/05/15 05:41:16;;;;;;;13.20;9.55;;;;;;;13.35;100.00;100595.59;4964951;28;20113;-71
2023/05/15 05:43:42;;;;;;;13.38;9.63;;;;;;;13.46;100.00;100601.13;4955782;28;20035;-71
2023/05/15 05:46:07;;;;;;;14.95;9.40;;;;;;;13.26;100.00;100591.03;4965149;28;20533;-71
2023/05/15 05:48:33;;;;;;;13.60;10.23;;;;;;;13.24;100.00;100617.78;4952449;28;20031;-71
2023/05/15 05:50:58;;;;;;;14.30;9.30;;;;;;;13.09;100.00;100618.19;4952489;28;20023;-69
2023/05/15 05:53:25;;;;;;;12.35;8.93;;;;;;;13.08;100.00;100598.31;4956493;28;20063;-70
2023/05/15 05:55:50;;;;;;;10.65;8.57;;;;;;;13.02;100.00;100592.94;4961225;28;20114;-70
2023/05/15 05:58:17;;;;;;;11.77;8.63;;;;;;;13.21;100.00;100607.31;4952258;28;20035;-75
2023/05/15 06:00:43;;;;;;;10.93;8.10;;;;;;;12.90;100.00;100552.88;4952351;28;20486;-72
2023/05/15 06:03:08;;;;;;;12.07;9.02;;;;;;;13.37;100.00;100593.03;4952523;28;20159;-72
2023/05/15 06:05:34;;;;;;;12.43;9.10;;;;;;;13.53;100.00;100595.28;4952403;28;20503;-70
2023/05/15 06:08:01;;;;;;;14.25;8.55;;;;;;;13.61;100.00;100585.09;4962122;28;20101;-73
2023/05/15 06:10:26;;;;;;;11.50;7.90;;;;;;;13.29;100.00;100490.84;4956048;28;20026;-73
2023/05/15 06:12:52;;;;;;;12.50;8.27;;;;;;;13.72;100.00;100552.53;4961165;28;20027;-74
2023/05/15 06:15:17;;;;;;;14.45;8.25;;;;;;;13.96;100.00;100553.97;4966753;28;20062;-74
2023/05/15 06:17:42;;;;;;;14.32;10.25;;;;;;;14.08;100.00;100562.06;4958216;28;20039;-69
2023/05/15 06:20:08;;;;;;;12.60;8.82;;;;;;;14.02;100.00;100561.91;4962119;28;20031;-69
2023/05/15 06:22:37;;;;;;;13.00;8.40;;;;;;;13.99;100.00;100574.81;4957619;28;20035;-72
2023/05/15 06:25:04;;;;;;;10.70;8.48;;;;;;;13.51;100.00;100489.75;4961349;28;20035;-71
2023/05/15 06:27:30;;;;;;;12.98;8.00;;;;;;;13.87;100.00;100587.50;4954633;28;20494;-73
2023/05/15 06:29:56;;;;;;;18.63;9.20;;;;;;;13.89;100.00;100580.59;4955669;28;20061;-72
2023/05/15 06:32:21;;;;;;;13.25;8.85;;;;;;;14.05;100.00;100594.84;4969958;28;20482;-71
2023/05/15 06:34:47;;;;;;;9.43;8.13;;;;;;;13.95;100.00;100562.59;4955486;28;20422;-70
2023/05/15 06:37:12;;;;;;;15.82;10.15;;;;;;;14.20;100.00;100586.56;4956210;28;20487;-68
2023/05/15 06:39:37;;;;;;;13.02;8.85;;;;;;;14.04;100.00;100572.31;4955708;28;20397;-71
2023/05/15 06:42:03;;;;;;;13.65;9.45;;;;;;;14.26;100.00;100580.66;4955650;28;20409;-70
2023/05/15 06:44:30;;;;;;;13.85;10.10;;;;;;;14.29;100.00;100591.09;4958424;28;20026;-68
2023/05/15 06:46:56;;;;;;;15.38;11.18;;;;;;;14.37;100.00;100584.38;4975022;28;20118;-68
2023/05/15 06:49:21;;;;;;;14.40;10.93;;;;;;;14.27;100.00;100598.84;4960735;28;20480;-75
2023/05/15 06:51:47;;;;;;;21.20;13.88;;;;;;;13.72;100.00;100513.59;4955818;28;20038;-71
2023/05/15 06:54:13;;;;;;;11.70;8.32;;;;;;;14.10;100.00;100563.81;4954796;28;20035;-76
2023/05/15 06:56:38;;;;;;;11.50;9.05;;;;;;;14.21;100.00;100573.59;4955327;28;20031;-71
2023/05/15 06:59:03;;;;;;;14.73;9.98;;;;;;;14.43;100.00;100599.19;4954712;28;20382;-75
2023/05/15 07:01:30;;;;;;;14.00;8.30;;;;;;;14.28;100.00;100595.41;4954721;28;20027;-72
2023/05/15 07:03:55;;;;;;;12.38;8.70;;;;;;;14.09;100.00;100581.09;4954731;28;20027;-72
2023/05/15 07:06:21;;;;;;;20.23;18.33;;;;;;;14.14;100.00;100565.63;4954731;28;20035;-72
2023/05/15 07:08:47;;;;;;;11.55;8.98;;;;;;;14.39;100.00;100561.88;4954797;28;20024;-71
2023/05/15 07:11:12;;;;;;;14.55;9.40;;;;;;;14.55;100.00;100573.50;4968271;28;20030;-72
2023/05/15 07:13:38;;;;;;;14.02;9.68;;;;;;;14.48;100.00;100574.19;4973452;28;20477;-74
2023/05/15 07:16:04;;;;;;;14.73;9.75;;;;;;;14.02;100.00;100519.50;4964916;28;20027;-71
2023/05/15 07:18:29;;;;;;;10.90;8.50;;;;;;;14.46;100.00;100570.72;4967723;28;20055;-73
2023/05/15 07:20:54;;;;;;;12.82;9.02;;;;;;;14.71;100.00;100578.22;4954990;28;20031;-75
2023/05/15 07:23:20;;;;;;;13.65;8.88;;;;;;;14.72;100.00;100577.38;4953650;28;20117;-74
2023/05/15 07:25:45;;;;;;;13.98;9.77;;;;;;;14.83;100.00;100577.63;4953120;28;20035;-75
2023/05/15 07:28:11;;;;;;;12.60;9.15;;;;;;;14.81;100.00;100573.25;4955607;28;20509;-74
2023/05/15 07:30:36;;;;;;;14.40;9.38;;;;;;;15.01;100.00;100592.72;4955358;28;20027;-75
2023/05/15 07:33:02;;;;;;;14.52;8.40;;;;;;;15.06;100.00;100587.63;4963002;28;20019;-75
2023/05/15 07:35:28;;;;;;;12.05;8.68;;;;;;;15.10;100.00;100589.41;4973897;28;20390;-75
2023/05/15 07:37:53;;;;;;;46.08;29.63;;;;;;;15.02;100.00;100586.66;4973294;28;20460;-74
2023/05/15 07:40:19;;;;;;;13.18;10.10;;;;;;;14.90;100.00;100555.22;4973775;28;20038;-74
2023/05/15 07:42:45;;;;;;;12.25;9.13;;;;;;;15.11;100.00;100562.59;4973542;28;20034;-75
2023/05/15 07:45:10;;;;;;;12.50;9.05;;;;;;;15.14;100.00;100551.38;4973900;28;20038;-73
2023/05/15 07:47:36;;;;;;;13.93;9.38;;;;;;;15.14;100.00;100557.47;4973787;28;20023;-72
2023/05/15 07:50:01;;;;;;;10.68;8.55;;;;;;;15.18;100.00;100566.19;4962984;28;20190;-74
2023/05/15 07:52:27;;;;;;;11.05;8.52;;;;;;;15.19;100.00;100555.81;4970995;28;20027;-72
2023/05/15 07:54:52;;;;;;;12.77;9.07;;;;;;;14.54;100.00;100437.56;4973439;28;20046;-73
2023/05/15 07:57:18;;;;;;;10.63;9.15;;;;;;;15.30;100.00;100561.25;4973070;28;20031;-73
2023/05/15 07:59:44;;;;;;;11.82;8.70;;;;;;;15.56;100.00;100581.63;4973521;28;20030;-74
2023/05/15 08:02:09;;;;;;;13.07;8.70;;;;;;;15.19;100.00;100488.19;4973508;28;20038;-73
2023/05/15 08:04:35;;;;;;;11.43;8.27;;;;;;;15.83;100.00;100580.41;4973527;28;20042;-79
2023/05/15 08:07:00;;;;;;;13.30;9.07;;;;;;;15.87;100.00;100577.00;4960177;28;20090;-73
2023/05/15 08:09:25;;;;;;;14.95;9.15;;;;;;;15.79;100.00;100548.22;4973289;28;20035;-73
2023/05/15 08:11:55;;;;;;;12.77;8.98;;;;;;;15.68;100.00;100508.97;4973313;28;20023;-72
2023/05/15 08:14:20;;;;;;;12.10;8.23;;;;;;;15.65;100.00;100495.03;4973295;28;20031;-72
2023/05/15 08:16:46;;;;;;;10.95;7.75;;;;;;;16.06;100.00;100543.47;4973210;28;20039;-73
2023/05/15 08:19:11;;;;;;;13.35;8.57;;;;;;;16.18;100.00;100551.47;4973118;28;20058;-73
2023/05/15 08:21:37;;;;;;;11.63;8.13;;;;;;;16.12;100.00;100512.31;4987010;28;20042;-74
2023/05/15 08:24:02;;;;;;;11.13;9.18;;;;;;;16.46;100.00;100549.25;4961013;28;20097;-72
2023/05/15 08:26:28;;;;;;;13.20;8.75;;;;;;;16.41;100.00;100537.91;4971238;28;20468;-73
2023/05/15 08:28:55;;;;;;;10.20;8.55;;;;;;;16.57;100.00;100545.06;4973112;28;20030;-78
2023/05/15 08:31:20;;;;;;;12.13;8.93;;;;;;;16.54;100.00;100536.34;4973082;28;20114;-73
2023/05/15 08:33:46;;;;;;;10.40;8.40;;;;;;;16.72;100.00;100553.94;4972821;28;20022;-73
2023/05/15 08:36:11;;;;;;;15.13;7.93;;;;;;;16.78;100.00;100557.50;4972799;28;20034;-74
2023/05/15 08:38:37;;;;;;;10.82;7.82;;;;;;;16.84;100.00;100529.78;4972874;28;20041;-73
2023/05/15 08:41:09;;;;;;;11.85;7.93;;;;;;;16.19;100.00;100415.19;4972597;28;20050;-72
2023/05/15 08:43:38;;;;;;;10.25;7.90;;;;;;;17.00;100.00;100564.75;4987956;28;20468;-73
2023/05/15 08:46:05;;;;;;;10.63;8.52;;;;;;;16.92;99.85;100555.13;4972423;28;20030;-73
2023/05/15 08:48:35;;;;;;;11.50;8.73;;;;;;;17.04;100.00;100535.25;4972600;28;20031;-75
2023/05/15 08:51:02;;;;;;;11.50;8.13;;;;;;;17.13;100.00;100541.47;4971289;28;20022;-77
2023/05/15 08:53:28;;;;;;;11.10;7.90;;;;;;;17.33;100.00;100539.91;4972537;28;20042;-75
2023/05/15 08:55:54;;;;;;;11.20;7.88;;;;;;;17.35;100.00;100533.00;4972425;28;20034;-74
2023/05/15 08:58:24;;;;;;;13.82;8.00;;;;;;;17.19;100.00;100509.34;4972423;28;20449;-78
2023/05/15 09:00:50;;;;;;;10.70;7.47;;;;;;;17.43;100.00;100528.69;4971996;28;20038;-74
2023/05/15 09:03:17;;;;;;;11.05;7.50;;;;;;;17.54;98.10;100544.47;4987264;28;20022;-74
2023/05/15 09:05:43;;;;;;;13.57;7.65;;;;;;;17.38;100.00;100536.47;4972345;28;20101;-76
2023/05/15 09:08:09;;;;;;;9.05;7.45;;;;;;;17.40;100.00;100545.22;5002498;28;20043;-77
2023/05/15 09:10:35;;;;;;;12.77;7.57;;;;;;;17.50;100.00;100553.16;4972266;28;20061;-74
2023/05/15 09:13:01;;;;;;;13.07;7.10;;;;;;;17.38;97.95;100540.84;4972002;28;20106;-72
2023/05/15 09:15:28;;;;;;;10.07;7.65;;;;;;;17.32;98.14;100538.16;4971782;28;20525;-74
2023/05/15 09:17:54;;;;;;;9.95;8.13;;;;;;;17.32;100.00;100530.34;4972250;28;20126;-72
2023/05/15 09:20:38;;;;;;;9.32;7.43;;;;;;;17.34;100.00;100536.47;4971822;28;20031;-72
2023/05/15 09:23:20;;;;;;;9.23;7.47;;;;;;;17.48;100.00;100544.41;4971599;28;20413;-73
2023/05/15 09:25:46;;;;;;;9.95;8.40;;;;;;;17.36;100.00;100540.84;4971903;28;20062;-74
2023/05/15 09:28:26;;;;;;;12.43;7.97;;;;;;;17.41;100.00;100539.13;4971906;28;20026;-75
2023/05/15 09:30:58;;;;;;;11.15;8.50;;;;;;;17.45;100.00;100529.59;4967982;28;20018;-74
2023/05/15 09:33:31;;;;;;;11.90;7.78;;;;;;;17.43;100.00;100506.09;4957676;28;20046;-75
2023/05/15 09:35:56;;;;;;;10.90;8.40;;;;;;;17.56;99.65;100514.06;4967282;28;20506;-76
2023/05/15 09:38:22;;;;;;;15.15;8.25;;;;;;;17.29;100.00;100458.97;4970125;28;20034;-78
2023/05/15 09:40:47;;;;;;;9.43;7.55;;;;;;;17.54;100.00;100479.22;4971872;28;20112;-77
2023/05/15 09:43:13;;;;;;;10.27;8.90;;;;;;;17.77;100.00;100509.00;4951455;28;20050;-74
2023/05/15 09:45:38;;;;;;;9.68;7.50;;;;;;;17.88;100.00;100519.53;4981119;28;20632;-73
2023/05/15 09:48:05;;;;;;;9.80;7.40;;;;;;;17.73;100.00;100452.41;4969262;28;20151;-76
2023/05/15 09:50:34;;;;;;;10.00;7.35;;;;;;;18.05;100.00;100490.06;4967344;28;20053;-72
2023/05/15 09:53:00;;;;;;;12.88;7.18;;;;;;;18.11;100.00;100479.66;4967525;28;20425;-76
2023/05/15 09:55:29;;;;;;;11.70;7.40;;;;;;;18.23;100.00;100494.53;4967417;28;20039;-74
2023/05/15 09:58:12;;;;;;;12.88;7.15;;;;;;;17.99;97.97;100430.81;4967289;28;20178;-75
2023/05/15 10:00:39;;;;;;;9.75;6.13;;;;;;;18.40;96.46;100494.63;4967536;28;20038;-75
2023/05/15 10:03:06;;;;;;;8.32;6.25;;;;;;;18.49;95.13;100486.84;4968738;28;20042;-72
2023/05/15 10:05:32;;;;;;;8.75;6.85;;;;;;;18.47;95.28;100477.22;4952951;28;20035;-76
2023/05/15 10:07:58;;;;;;;10.00;6.45;;;;;;;18.14;97.30;100431.78;4969158;28;20045;-72
2023/05/15 10:10:25;;;;;;;10.30;6.30;;;;;;;18.55;97.33;100499.91;4969233;28;20035;-73
2023/05/15 10:12:52;;;;;;;11.18;6.80;;;;;;;18.54;95.37;100486.84;4974499;28;20034;-73
2023/05/15 10:15:18;;;;;;;8.00;6.07;;;;;;;18.48;92.77;100479.88;4986579;28;20499;-74
2023/05/15 10:17:47;;;;;;;9.80;6.13;;;;;;;18.54;91.65;100474.66;4952517;28;20047;-72
2023/05/15 10:20:15;;;;;;;9.48;6.70;;;;;;;18.37;95.02;100443.22;4952100;28;20059;-73
2023/05/15 10:22:45;;;;;;;7.03;5.65;;;;;;;18.54;92.90;100464.22;4969526;28;20098;-74
2023/05/15 10:25:41;;;;;;;9.38;5.50;;;;;;;18.61;96.42;100459.00;4960925;28;20121;-75
2023/05/15 10:28:09;;;;;;;7.53;5.28;;;;;;;18.66;94.06;100459.91;4952284;28;20063;-73
2023/05/15 10:30:35;;;;;;;6.68;5.10;;;;;;;18.65;93.05;100453.78;4952013;28;20031;-73
2023/05/15 10:33:03;;;;;;;7.40;4.78;;;;;;;18.83;95.08;100457.31;4952113;28;20500;-73
2023/05/15 10:35:29;;;;;;;8.43;4.63;;;;;;;18.85;90.09;100459.06;4951646;28;20028;-75
2023/05/15 10:37:55;;;;;;;7.03;4.93;;;;;;;18.69;91.45;100458.16;4952162;28;20039;-72
2023/05/15 10:40:22;;;;;;;7.38;4.95;;;;;;;18.63;92.12;100455.53;4955316;28;20069;-74
2023/05/15 10:42:48;;;;;;;6.90;4.97;;;;;;;18.47;92.34;100441.53;4970602;28;20477;-74
2023/05/15 10:45:13;;;;;;;11.80;5.10;;;;;;;18.56;92.96;100427.59;4979803;28;20038;-74
2023/05/15 10:47:41;;;;;;;8.60;5.20;;;;;;;18.66;93.27;100425.91;4970949;28;20035;-73
2023/05/15 10:50:07;;;;;;;7.38;4.75;;;;;;;18.92;93.41;100398.06;4970153;28;20081;-78
2023/05/15 10:52:32;;;;;;;7.70;4.30;;;;;;;19.41;90.78;100422.53;4948890;28;20039;-78
2023/05/15 10:54:59;;;;;;;7.60;5.03;;;;;;;19.35;90.32;100360.59;4961841;28;20054;-70
2023/05/15 10:57:28;;;;;;;9.70;5.43;;;;;;;20.06;87.15;100425.09;4968850;28;20046;-71
2023/05/15 10:59:54;;;;;;;12.25;5.20;;;;;;;20.04;90.61;100405.88;4968967;28;20031;-73
2023/05/15 11:02:22;;;;;;;7.90;5.25;;;;;;;20.41;87.55;100415.34;4968351;28;20035;-74
2023/05/15 11:04:52;;;;;;;9.43;5.53;;;;;;;20.12;86.37;100341.19;4968155;28;20043;-73
2023/05/15 11:07:17;;;;;;;9.55;4.53;;;;;;;20.57;85.41;100392.56;4967228;28;20039;-72
2023/05/15 11:09:45;;;;;;;9.25;5.38;;;;;;;20.68;85.82;100395.97;4968281;28;20485;-73
2023/05/15 11:12:10;;;;;;;6.88;4.63;;;;;;;20.73;87.15;100388.97;4969170;28;20043;-73
2023/05/15 11:15:02;;;;;;;7.95;4.82;;;;;;;20.88;85.74;100401.13;4971465;28;20046;-72